Ainazi, Latvia

6:35 PM EEST on September 30, 2014 (GMT +0300)
Parnu | Change Station
CLOSE
Current Station
Airport
Location: PARNU,
Elevation: 46 ft
Nearby Weather Stations

Elev 46 ft 58.42 °N, 24.47 °E | Updated 2 hours ago

Partly Cloudy
Partly Cloudy
55 °F
Feels Like 55 °F
N
14
Wind Variable Wind from NNW

Today
High -- | Low -- °F
--% Chance of Precip.
Yesterday
High -- | Low -- °F
Precip. -- in
7:23 AM 6:59 PM
Waxing Crescent, 37% visible
Pressure 30.18 in
Visibility 6.2 miles
Clouds Few 1100 ft
Dew Point 39 °F
Humidity 54%
Rainfall 0.00 in
Snow Depth Not available.
UV 2 out of 12
Pollen Not available.
Air Quality Not available.
Flu Activity Not available.
METAR EEPU 301250Z 33012KT 300V010 9999 FEW011 13/04 Q1022

More Conditions Fewer Conditions

Pressure 30.18 in
Visibility 6.2 miles
Clouds Few 1100 ft
Dew Point 39 °F
Humidity 54%
Rainfall 0.00 in
Snow Depth Not available.
UV 2 out of 12
Pollen Not available.
Air Quality Not available.
Flu Activity Not available.
METAR EEPU 301250Z 33012KT 300V010 9999 FEW011 13/04 Q1022

More Conditions Fewer Conditions

10-Day Weather Forecast

Almanac

Astronomy

Sep. 30, 2014 Rise Set
Actual Time 7:23 AM EEST 6:59 PM EEST
Civil Twilight 6:44 AM EEST 7:38 PM EEST
Nautical Twilight 5:59 AM EEST 8:24 PM EEST
Astronomical Twilight 5:11 AM EEST 9:12 PM EEST
Moon 2:14 PM EEST 10:12 PM EEST
Length of Visible Light 12h 53m
Length of Day
11h 36m
Tomorrow will be 4m 57s shorter.
Waxing Crescent, 37% of the Moon is Illuminated
Today
Waxing Crescent
Oct 1
First Quarter
Oct 8
Full
Oct 15
Last Quarter
Oct 23
New

Today's Extremes

Country Highs Country Lows

Community

WunderPhotos

Upload Photos

1,757,669 photos uploaded!

Nearby

Snow Depth

Not available.

Earthquake Activity

City Distance Mag. Time & Date
No recent earthquake activity has been reported nearby.
Minimum magnitude displayed is 2.5.

Coastal Water Temperatures

Place Temperature
No Stations Reporting

Nearby Weather Stations